KRIC

Richmond International Airport

Richmond, Virginia, USA
METAR KRIC 191054Z 33005KT 10SM FEW250 20/18 A2989 RMK AO2 SLP126 T02000183
Observed Flight Rules
Sep-19 @ 10:54 UTC (11 minutes ago) Visual Flight Rules
Wind Visibility Clouds
330° at 5 knots 10 miles
  • Few at 25,000' AGL
Temperatures Readings
Current 20°C / 68°F
Dewpoint 18°C / 64°F
Humidity 88%
Altimeter 29.89" Hg
Pressure 1012.6 hPa
Elevation 50
METAR KRIC 191054Z 33005KT 10SM FEW250 20/18 A2989 RMK AO2 SLP126 T02000183
Observed Flight Rules
Sep-19 @ 10:54 UTC
(11 minutes ago)
VFR
Wind Visibility
330° at 5 knots 10 miles
Clouds
  • Few at 25,000' AGL
Temperature Dewpoint
20°C / 68°F 18°C / 64°F
Humidity Altimeter Pressure
88% 29.89" Hg 1012.6 hPa